sensor_id;sensor_type;location;lat;lon;timestamp;pressure;altitude;pressure_sealevel;temperature;humidity
34566;BME280;20803;42.676;26.348;2023-08-17T00:00:51;98521.66;;;27.66;47.69
34566;BME280;20803;42.676;26.348;2023-08-17T00:03:16;98517.56;;;27.62;47.56
34566;BME280;20803;42.676;26.348;2023-08-17T00:05:44;98519.94;;;27.58;47.77
34566;BME280;20803;42.676;26.348;2023-08-17T00:08:10;98531.59;;;27.60;47.82
34566;BME280;20803;42.676;26.348;2023-08-17T00:10:35;98532.63;;;27.62;47.59
34566;BME280;20803;42.676;26.348;2023-08-17T00:13:03;98531.91;;;27.56;47.97
34566;BME280;20803;42.676;26.348;2023-08-17T00:15:29;98527.72;;;27.57;48.06
34566;BME280;20803;42.676;26.348;2023-08-17T00:17:54;98529.81;;;27.57;47.38
34566;BME280;20803;42.676;26.348;2023-08-17T00:20:20;98533.97;;;27.56;47.19
34566;BME280;20803;42.676;26.348;2023-08-17T00:22:45;98530.63;;;27.52;47.64
34566;BME280;20803;42.676;26.348;2023-08-17T00:25:11;98530.88;;;27.54;47.70
34566;BME280;20803;42.676;26.348;2023-08-17T00:27:36;98531.13;;;27.56;47.32
34566;BME280;20803;42.676;26.348;2023-08-17T00:30:02;98534.78;;;27.51;47.41
34566;BME280;20803;42.676;26.348;2023-08-17T00:32:27;98540.75;;;27.53;47.29
34566;BME280;20803;42.676;26.348;2023-08-17T00:34:53;98538.94;;;27.50;47.48
34566;BME280;20803;42.676;26.348;2023-08-17T00:37:18;98524.34;;;27.59;47.14
34566;BME280;20803;42.676;26.348;2023-08-17T00:39:44;98523.88;;;27.49;47.47
34566;BME280;20803;42.676;26.348;2023-08-17T00:42:09;98532.72;;;27.45;47.80
34566;BME280;20803;42.676;26.348;2023-08-17T00:44:35;98535.56;;;27.51;47.47
34566;BME280;20803;42.676;26.348;2023-08-17T00:47:00;98519.16;;;27.57;47.50
34566;BME280;20803;42.676;26.348;2023-08-17T00:49:26;98525.16;;;27.54;47.49
34566;BME280;20803;42.676;26.348;2023-08-17T00:51:51;98514.00;;;27.56;47.74
34566;BME280;20803;42.676;26.348;2023-08-17T00:54:25;98517.56;;;27.62;47.16
34566;BME280;20803;42.676;26.348;2023-08-17T00:56:53;98532.31;;;27.66;47.13
34566;BME280;20803;42.676;26.348;2023-08-17T00:59:19;98525.41;;;27.56;47.81
34566;BME280;20803;42.676;26.348;2023-08-17T01:01:46;98532.69;;;27.51;47.90
34566;BME280;20803;42.676;26.348;2023-08-17T01:04:12;98535.56;;;27.51;47.60
34566;BME280;20803;42.676;26.348;2023-08-17T01:06:38;98535.56;;;27.51;47.75
34566;BME280;20803;42.676;26.348;2023-08-17T01:09:03;98547.78;;;27.46;48.17
34566;BME280;20803;42.676;26.348;2023-08-17T01:11:48;98544.66;;;27.50;48.47
34566;BME280;20803;42.676;26.348;2023-08-17T01:16:51;98546.28;;;27.39;49.00
34566;BME280;20803;42.676;26.348;2023-08-17T01:19:27;98551.03;;;27.31;49.33
34566;BME280;20803;42.676;26.348;2023-08-17T01:22:08;98546.28;;;27.39;49.24
34566;BME280;20803;42.676;26.348;2023-08-17T01:24:34;98542.91;;;27.41;49.06
34566;BME280;20803;42.676;26.348;2023-08-17T01:26:59;98553.84;;;27.37;49.12
34566;BME280;20803;42.676;26.348;2023-08-17T01:29:25;98554.88;;;27.34;49.48
34566;BME280;20803;42.676;26.348;2023-08-17T01:32:16;98546.06;;;27.37;49.40
34566;BME280;20803;42.676;26.348;2023-08-17T01:34:58;98552.91;;;27.23;49.54
34566;BME280;20803;42.676;26.348;2023-08-17T01:37:27;98543.97;;;27.38;49.41
34566;BME280;20803;42.676;26.348;2023-08-17T01:39:55;98545.28;;;27.37;49.36
34566;BME280;20803;42.676;26.348;2023-08-17T01:42:22;98538.75;;;27.42;49.23
34566;BME280;20803;42.676;26.348;2023-08-17T01:44:49;98549.63;;;27.43;49.09
34566;BME280;20803;42.676;26.348;2023-08-17T01:47:14;98546.06;;;27.37;48.92
34566;BME280;20803;42.676;26.348;2023-08-17T01:49:40;98544.50;;;27.36;49.09
34566;BME280;20803;42.676;26.348;2023-08-17T01:52:05;98547.25;;;27.48;48.91
34566;BME280;20803;42.676;26.348;2023-08-17T01:54:31;98550.69;;;27.40;49.07
34566;BME280;20803;42.676;26.348;2023-08-17T01:56:56;98537.91;;;27.47;48.13
34566;BME280;20803;42.676;26.348;2023-08-17T01:59:22;98540.81;;;27.41;48.66
34566;BME280;20803;42.676;26.348;2023-08-17T02:01:47;98535.94;;;27.36;48.69
34566;BME280;20803;42.676;26.348;2023-08-17T02:04:12;98539.25;;;27.40;48.47
34566;BME280;20803;42.676;26.348;2023-08-17T02:06:38;98536.72;;;27.37;48.36
34566;BME280;20803;42.676;26.348;2023-08-17T02:09:03;98534.63;;;27.37;48.60
34566;BME280;20803;42.676;26.348;2023-08-17T02:11:29;98531.78;;;27.37;48.44
34566;BME280;20803;42.676;26.348;2023-08-17T02:13:54;98532.81;;;27.34;48.14
34566;BME280;20803;42.676;26.348;2023-08-17T02:16:20;98525.78;;;27.41;48.10
34566;BME280;20803;42.676;26.348;2023-08-17T02:18:45;98529.41;;;27.41;48.13
34566;BME280;20803;42.676;26.348;2023-08-17T02:21:10;98531.47;;;27.41;48.33
34566;BME280;20803;42.676;26.348;2023-08-17T02:23:36;98535.59;;;27.45;48.29
34566;BME280;20803;42.676;26.348;2023-08-17T02:26:01;98530.63;;;27.52;48.37
34566;BME280;20803;42.676;26.348;2023-08-17T02:28:27;98535.22;;;27.60;48.07
34566;BME280;20803;42.676;26.348;2023-08-17T02:30:56;98538.84;;;27.61;48.16
34566;BME280;20803;42.676;26.348;2023-08-17T02:33:22;98529.56;;;27.55;48.07
34566;BME280;20803;42.676;26.348;2023-08-17T02:35:49;98522.19;;;27.65;47.90
34566;BME280;20803;42.676;26.348;2023-08-17T02:38:14;98521.00;;;27.55;47.74
34566;BME280;20803;42.676;26.348;2023-08-17T02:40:39;98522.59;;;27.50;47.94
34566;BME280;20803;42.676;26.348;2023-08-17T02:43:05;98525.34;;;27.31;47.56
34566;BME280;20803;42.676;26.348;2023-08-17T02:45:30;98521.81;;;27.20;48.49
34566;BME280;20803;42.676;26.348;2023-08-17T02:47:56;98517.19;;;27.11;48.35
34566;BME280;20803;42.676;26.348;2023-08-17T02:50:21;98520.13;;;27.00;49.28
34566;BME280;20803;42.676;26.348;2023-08-17T02:52:46;98527.16;;;26.99;49.31
34566;BME280;20803;42.676;26.348;2023-08-17T02:55:12;98521.22;;;26.91;49.79
34566;BME280;20803;42.676;26.348;2023-08-17T02:57:37;98525.69;;;26.81;49.93
34566;BME280;20803;42.676;26.348;2023-08-17T03:00:03;98521.25;;;26.86;50.12
34566;BME280;20803;42.676;26.348;2023-08-17T03:02:28;98525.16;;;26.83;49.39
34566;BME280;20803;42.676;26.348;2023-08-17T03:04:54;98543.84;;;26.78;49.71
34566;BME280;20803;42.676;26.348;2023-08-17T03:07:19;98541.06;;;26.67;50.27
34566;BME280;20803;42.676;26.348;2023-08-17T03:09:45;98542.09;;;26.70;50.09
34566;BME280;20803;42.676;26.348;2023-08-17T03:12:10;98535.31;;;26.73;50.05
34566;BME280;20803;42.676;26.348;2023-08-17T03:14:36;98539.97;;;26.76;49.94
34566;BME280;20803;42.676;26.348;2023-08-17T03:17:01;98535.81;;;26.77;49.96
34566;BME280;20803;42.676;26.348;2023-08-17T03:19:27;98538.13;;;26.78;49.72
34566;BME280;20803;42.676;26.348;2023-08-17T03:21:52;98542.31;;;26.72;50.15
34566;BME280;20803;42.676;26.348;2023-08-17T03:24:17;98533.50;;;26.75;50.00
34566;BME280;20803;42.676;26.348;2023-08-17T03:26:43;98538.69;;;26.77;49.87
34566;BME280;20803;42.676;26.348;2023-08-17T03:29:08;98544.91;;;26.75;50.16
34566;BME280;20803;42.676;26.348;2023-08-17T03:31:35;98554.72;;;26.80;49.78
34566;BME280;20803;42.676;26.348;2023-08-17T03:34:00;98548.25;;;26.79;49.81
34566;BME280;20803;42.676;26.348;2023-08-17T03:36:26;98541.72;;;26.90;49.90
34566;BME280;20803;42.676;26.348;2023-08-17T03:38:51;98556.72;;;26.96;49.71
34566;BME280;20803;42.676;26.348;2023-08-17T03:41:17;98558.28;;;26.97;49.72
34566;BME280;20803;42.676;26.348;2023-08-17T03:43:42;98547.16;;;26.88;49.71
34566;BME280;20803;42.676;26.348;2023-08-17T03:46:08;98535.31;;;26.73;50.09
34566;BME280;20803;42.676;26.348;2023-08-17T03:48:33;98529.38;;;26.71;50.37
34566;BME280;20803;42.676;26.348;2023-08-17T03:50:59;98554.25;;;26.76;50.27
34566;BME280;20803;42.676;26.348;2023-08-17T03:53:26;98554.72;;;26.80;50.12
34566;BME280;20803;42.676;26.348;2023-08-17T03:55:51;98542.00;;;26.81;50.21
34566;BME280;20803;42.676;26.348;2023-08-17T03:58:18;98546.91;;;26.91;49.93
34566;BME280;20803;42.676;26.348;2023-08-17T04:00:51;98552.75;;;27.10;49.39
34566;BME280;20803;42.676;26.348;2023-08-17T04:03:17;98557.56;;;27.26;49.68
34566;BME280;20803;42.676;26.348;2023-08-17T04:05:42;98563.13;;;27.43;49.21
34566;BME280;20803;42.676;26.348;2023-08-17T04:08:08;98564.31;;;27.59;48.86
34566;BME280;20803;42.676;26.348;2023-08-17T04:10:33;98569.09;;;27.75;48.29
34566;BME280;20803;42.676;26.348;2023-08-17T04:12:59;98559.97;;;27.46;48.70
34566;BME280;20803;42.676;26.348;2023-08-17T04:15:24;98559.69;;;27.56;48.54
34566;BME280;20803;42.676;26.348;2023-08-17T04:17:50;98557.63;;;27.51;48.43
34566;BME280;20803;42.676;26.348;2023-08-17T04:20:15;98563.66;;;27.41;48.76
34566;BME280;20803;42.676;26.348;2023-08-17T04:22:41;98556.16;;;27.38;48.63
34566;BME280;20803;42.676;26.348;2023-08-17T04:25:06;98562.88;;;27.41;49.22
34566;BME280;20803;42.676;26.348;2023-08-17T04:27:33;98558.69;;;27.12;49.71
34566;BME280;20803;42.676;26.348;2023-08-17T04:29:58;98563.88;;;27.08;50.24
34566;BME280;20803;42.676;26.348;2023-08-17T04:32:24;98559.91;;;27.22;50.31
34566;BME280;20803;42.676;26.348;2023-08-17T04:34:49;98562.44;;;27.31;49.46
34566;BME280;20803;42.676;26.348;2023-08-17T04:37:15;98560.22;;;27.49;48.52
34566;BME280;20803;42.676;26.348;2023-08-17T04:39:40;98554.38;;;27.65;47.35
34566;BME280;20803;42.676;26.348;2023-08-17T04:42:08;98565.63;;;27.82;46.82
34566;BME280;20803;42.676;26.348;2023-08-17T04:44:34;98574.06;;;27.99;44.70
34566;BME280;20803;42.676;26.348;2023-08-17T04:46:59;98568.28;;;28.04;42.66
34566;BME280;20803;42.676;26.348;2023-08-17T04:49:25;98563.78;;;28.14;39.31
34566;BME280;20803;42.676;26.348;2023-08-17T04:51:51;98570.06;;;28.32;38.97
34566;BME280;20803;42.676;26.348;2023-08-17T04:54:17;98567.38;;;28.39;38.37
34566;BME280;20803;42.676;26.348;2023-08-17T04:56:42;98569.03;;;28.53;39.20
34566;BME280;20803;42.676;26.348;2023-08-17T04:59:08;98562.50;;;28.77;38.56
34566;BME280;20803;42.676;26.348;2023-08-17T05:01:34;98571.38;;;28.92;38.04
34566;BME280;20803;42.676;26.348;2023-08-17T05:04:00;98559.75;;;29.03;38.62
34566;BME280;20803;42.676;26.348;2023-08-17T05:06:28;98552.25;;;29.19;38.43
34566;BME280;20803;42.676;26.348;2023-08-17T05:08:53;98559.53;;;29.39;38.31
34566;BME280;20803;42.676;26.348;2023-08-17T05:11:18;98557.16;;;29.56;39.10
34566;BME280;20803;42.676;26.348;2023-08-17T05:13:44;98555.75;;;29.76;38.31
34566;BME280;20803;42.676;26.348;2023-08-17T05:16:09;98536.91;;;29.80;38.52
34566;BME280;20803;42.676;26.348;2023-08-17T05:18:35;98543.56;;;29.89;38.93
34566;BME280;20803;42.676;26.348;2023-08-17T05:21:00;98538.34;;;29.87;38.74
34566;BME280;20803;42.676;26.348;2023-08-17T05:23:26;98544.91;;;30.01;38.75
34566;BME280;20803;42.676;26.348;2023-08-17T05:25:51;98550.06;;;30.02;38.98
34566;BME280;20803;42.676;26.348;2023-08-17T05:28:16;98551.84;;;30.05;39.16
34566;BME280;20803;42.676;26.348;2023-08-17T05:30:43;98532.09;;;30.02;38.64
34566;BME280;20803;42.676;26.348;2023-08-17T05:33:08;98536.69;;;29.78;39.30
34566;BME280;20803;42.676;26.348;2023-08-17T05:35:34;98546.38;;;29.75;39.64
34566;BME280;20803;42.676;26.348;2023-08-17T05:37:59;98539.66;;;29.73;39.96
34566;BME280;20803;42.676;26.348;2023-08-17T05:40:25;98542.44;;;29.47;39.95
34566;BME280;20803;42.676;26.348;2023-08-17T05:42:51;98539.94;;;29.24;40.34
34566;BME280;20803;42.676;26.348;2023-08-17T05:45:16;98542.88;;;29.19;40.57
34566;BME280;20803;42.676;26.348;2023-08-17T05:47:42;98537.69;;;29.36;40.88
34566;BME280;20803;42.676;26.348;2023-08-17T05:50:08;98545.69;;;29.56;40.58
34566;BME280;20803;42.676;26.348;2023-08-17T05:52:33;98538.88;;;29.72;40.68
34566;BME280;20803;42.676;26.348;2023-08-17T05:54:59;98540.69;;;29.89;40.73
34566;BME280;20803;42.676;26.348;2023-08-17T05:57:24;98543.25;;;30.05;40.66
34566;BME280;20803;42.676;26.348;2023-08-17T05:59:50;98537.63;;;30.13;40.62
34566;BME280;20803;42.676;26.348;2023-08-17T06:02:15;98537.63;;;30.13;40.85
34566;BME280;20803;42.676;26.348;2023-08-17T06:04:41;98539.94;;;30.28;40.73
34566;BME280;20803;42.676;26.348;2023-08-17T06:07:06;98539.63;;;30.31;40.60
34566;BME280;20803;42.676;26.348;2023-08-17T06:09:32;98552.94;;;30.42;40.61
34566;BME280;20803;42.676;26.348;2023-08-17T06:11:57;98538.63;;;30.55;40.40
34566;BME280;20803;42.676;26.348;2023-08-17T06:14:22;98548.66;;;30.48;40.36
34566;BME280;20803;42.676;26.348;2023-08-17T06:16:48;98553.50;;;30.53;40.79
34566;BME280;20803;42.676;26.348;2023-08-17T06:19:13;98556.56;;;30.69;40.19
34566;BME280;20803;42.676;26.348;2023-08-17T06:21:39;98538.69;;;30.62;39.86
34566;BME280;20803;42.676;26.348;2023-08-17T06:24:04;98567.19;;;30.60;39.85
34566;BME280;20803;42.676;26.348;2023-08-17T06:26:30;98560.97;;;30.70;40.10
34566;BME280;20803;42.676;26.348;2023-08-17T06:28:55;98560.53;;;30.79;39.81
34566;BME280;20803;42.676;26.348;2023-08-17T06:31:22;98562.41;;;30.76;39.95
34566;BME280;20803;42.676;26.348;2023-08-17T06:33:50;98557.81;;;30.94;40.16
34566;BME280;20803;42.676;26.348;2023-08-17T06:36:15;98567.56;;;31.04;40.00
34566;BME280;20803;42.676;26.348;2023-08-17T06:38:42;98561.00;;;31.03;39.96
34566;BME280;20803;42.676;26.348;2023-08-17T06:41:07;98558.03;;;31.09;40.58
34566;BME280;20803;42.676;26.348;2023-08-17T06:43:33;98559.31;;;31.21;40.46
34566;BME280;20803;42.676;26.348;2023-08-17T06:45:58;98557.34;;;31.16;40.12
34566;BME280;20803;42.676;26.348;2023-08-17T06:48:25;98563.28;;;31.18;40.47
34566;BME280;20803;42.676;26.348;2023-08-17T06:50:51;98553.00;;;31.23;40.06
34566;BME280;20803;42.676;26.348;2023-08-17T06:53:16;98548.09;;;31.10;40.14
34566;BME280;20803;42.676;26.348;2023-08-17T06:55:41;98553.41;;;31.06;40.13
34566;BME280;20803;42.676;26.348;2023-08-17T06:58:07;98550.75;;;31.08;40.42
34566;BME280;20803;42.676;26.348;2023-08-17T07:00:32;98547.66;;;31.06;40.35
34566;BME280;20803;42.676;26.348;2023-08-17T07:03:00;98542.22;;;31.02;40.70
34566;BME280;20803;42.676;26.348;2023-08-17T07:05:26;98550.53;;;31.06;40.84
34566;BME280;20803;42.676;26.348;2023-08-17T07:07:51;98536.38;;;31.08;40.26
34566;BME280;20803;42.676;26.348;2023-08-17T07:10:18;98541.34;;;31.08;40.46
34566;BME280;20803;42.676;26.348;2023-08-17T07:12:44;98553.41;;;30.93;40.79
34566;BME280;20803;42.676;26.348;2023-08-17T07:15:10;98541.22;;;30.79;41.13
34566;BME280;20803;42.676;26.348;2023-08-17T07:17:36;98545.84;;;30.69;41.79
34566;BME280;20803;42.676;26.348;2023-08-17T07:20:03;98539.34;;;30.69;41.75
34566;BME280;20803;42.676;26.348;2023-08-17T07:22:29;98543.97;;;30.72;42.10
34566;BME280;20803;42.676;26.348;2023-08-17T07:24:55;98550.81;;;30.69;42.10
34566;BME280;20803;42.676;26.348;2023-08-17T07:27:21;98549.31;;;30.54;42.47
34566;BME280;20803;42.676;26.348;2023-08-17T07:29:46;98543.78;;;30.43;42.55
34566;BME280;20803;42.676;26.348;2023-08-17T07:32:12;98547.88;;;30.48;42.66
34566;BME280;20803;42.676;26.348;2023-08-17T07:34:37;98547.94;;;30.69;42.54
34566;BME280;20803;42.676;26.348;2023-08-17T07:37:05;98558.94;;;30.91;42.12
34566;BME280;20803;42.676;26.348;2023-08-17T07:39:32;98546.34;;;30.94;41.72
34566;BME280;20803;42.676;26.348;2023-08-17T07:41:57;98541.72;;;30.91;41.69
34566;BME280;20803;42.676;26.348;2023-08-17T07:44:22;98540.41;;;30.92;41.94
34566;BME280;20803;42.676;26.348;2023-08-17T07:46:48;98537.94;;;30.96;41.64
34566;BME280;20803;42.676;26.348;2023-08-17T07:49:13;98535.50;;;31.00;41.24
34566;BME280;20803;42.676;26.348;2023-08-17T07:51:39;98536.19;;;30.93;41.18
34566;BME280;20803;42.676;26.348;2023-08-17T07:54:04;98533.28;;;31.06;41.24
34566;BME280;20803;42.676;26.348;2023-08-17T07:56:30;98518.47;;;31.15;40.63
34566;BME280;20803;42.676;26.348;2023-08-17T07:58:55;98515.53;;;31.28;40.70
34566;BME280;20803;42.676;26.348;2023-08-17T08:01:20;98519.19;;;31.29;40.85
34566;BME280;20803;42.676;26.348;2023-08-17T08:03:46;98512.38;;;31.39;40.62
34566;BME280;20803;42.676;26.348;2023-08-17T08:06:11;98532.13;;;31.43;40.35
34566;BME280;20803;42.676;26.348;2023-08-17T08:08:38;98525.59;;;31.42;39.10
34566;BME280;20803;42.676;26.348;2023-08-17T08:11:03;98532.41;;;31.53;39.34
34566;BME280;20803;42.676;26.348;2023-08-17T08:13:30;98522.00;;;31.63;38.98
34566;BME280;20803;42.676;26.348;2023-08-17T08:15:57;98526.88;;;31.55;39.03
34566;BME280;20803;42.676;26.348;2023-08-17T08:18:22;98531.22;;;31.48;39.19
34566;BME280;20803;42.676;26.348;2023-08-17T08:20:48;98521.19;;;31.41;39.58
34566;BME280;20803;42.676;26.348;2023-08-17T08:23:14;98536.00;;;31.46;38.39
34566;BME280;20803;42.676;26.348;2023-08-17T08:25:39;98534.94;;;31.56;38.82
34566;BME280;20803;42.676;26.348;2023-08-17T08:28:05;98542.94;;;31.50;37.73
34566;BME280;20803;42.676;26.348;2023-08-17T08:30:30;98542.06;;;31.42;37.64
34566;BME280;20803;42.676;26.348;2023-08-17T08:32:56;98538.16;;;31.32;37.47
34566;BME280;20803;42.676;26.348;2023-08-17T08:35:23;98549.69;;;31.19;37.96
34566;BME280;20803;42.676;26.348;2023-08-17T08:37:50;98543.41;;;31.20;38.24
34566;BME280;20803;42.676;26.348;2023-08-17T08:40:17;98558.03;;;31.30;37.79
34566;BME280;20803;42.676;26.348;2023-08-17T08:42:43;98557.50;;;31.31;37.49
34566;BME280;20803;42.676;26.348;2023-08-17T08:45:09;98561.22;;;31.39;38.06
34566;BME280;20803;42.676;26.348;2023-08-17T08:47:36;98563.25;;;31.52;37.91
34566;BME280;20803;42.676;26.348;2023-08-17T08:50:04;98567.13;;;31.75;37.52
34566;BME280;20803;42.676;26.348;2023-08-17T08:52:35;98573.97;;;31.72;36.26
34566;BME280;20803;42.676;26.348;2023-08-17T08:55:11;98560.78;;;31.98;37.17
34566;BME280;20803;42.676;26.348;2023-08-17T08:57:41;98564.59;;;32.21;37.17
34566;BME280;20803;42.676;26.348;2023-08-17T09:00:06;98566.56;;;32.26;36.74
34566;BME280;20803;42.676;26.348;2023-08-17T09:02:33;98557.63;;;32.37;36.56
34566;BME280;20803;42.676;26.348;2023-08-17T09:04:59;98563.44;;;32.52;36.77
34566;BME280;20803;42.676;26.348;2023-08-17T09:07:26;98545.09;;;32.63;36.80
34566;BME280;20803;42.676;26.348;2023-08-17T09:09:54;98551.47;;;32.69;36.65
34566;BME280;20803;42.676;26.348;2023-08-17T09:12:21;98542.97;;;32.63;36.51
34566;BME280;20803;42.676;26.348;2023-08-17T09:14:47;98557.94;;;32.62;36.64
34566;BME280;20803;42.676;26.348;2023-08-17T09:17:12;98554.78;;;32.81;36.19
34566;BME280;20803;42.676;26.348;2023-08-17T09:19:38;98550.75;;;32.84;36.53
34566;BME280;20803;42.676;26.348;2023-08-17T09:22:03;98556.97;;;33.03;35.70
34566;BME280;20803;42.676;26.348;2023-08-17T09:24:35;98546.78;;;33.02;35.51
34566;BME280;20803;42.676;26.348;2023-08-17T09:27:04;98535.81;;;32.93;34.95
34566;BME280;20803;42.676;26.348;2023-08-17T09:29:31;98539.03;;;32.82;35.30
34566;BME280;20803;42.676;26.348;2023-08-17T09:32:06;98539.13;;;33.05;35.93
34566;BME280;20803;42.676;26.348;2023-08-17T09:34:32;98546.56;;;33.00;35.86
34566;BME280;20803;42.676;26.348;2023-08-17T09:37:04;98552.00;;;33.11;36.45
34566;BME280;20803;42.676;26.348;2023-08-17T09:39:31;98543.72;;;33.08;35.88
34566;BME280;20803;42.676;26.348;2023-08-17T09:41:57;98543.94;;;33.10;36.71
34566;BME280;20803;42.676;26.348;2023-08-17T09:44:22;98552.81;;;33.27;36.80
34566;BME280;20803;42.676;26.348;2023-08-17T09:46:48;98548.44;;;33.56;36.91
34566;BME280;20803;42.676;26.348;2023-08-17T09:49:13;98557.09;;;33.64;36.11
34566;BME280;20803;42.676;26.348;2023-08-17T09:51:42;98544.25;;;33.72;36.01
34566;BME280;20803;42.676;26.348;2023-08-17T09:54:20;98552.09;;;33.64;36.32
34566;BME280;20803;42.676;26.348;2023-08-17T09:56:46;98559.78;;;33.69;36.74
34566;BME280;20803;42.676;26.348;2023-08-17T09:59:11;98559.19;;;33.56;36.56
34566;BME280;20803;42.676;26.348;2023-08-17T10:01:37;98545.16;;;33.45;37.36
34566;BME280;20803;42.676;26.348;2023-08-17T10:04:03;98548.44;;;33.41;37.38
34566;BME280;20803;42.676;26.348;2023-08-17T10:06:31;98558.78;;;33.36;37.31
34566;BME280;20803;42.676;26.348;2023-08-17T10:08:58;98551.69;;;33.30;36.87
34566;BME280;20803;42.676;26.348;2023-08-17T10:11:26;98553.81;;;33.45;36.96
34566;BME280;20803;42.676;26.348;2023-08-17T10:16:26;98552.88;;;33.65;37.90
34566;BME280;20803;42.676;26.348;2023-08-17T10:18:58;98549.78;;;33.63;38.68
34566;BME280;20803;42.676;26.348;2023-08-17T10:21:30;98540.19;;;33.60;38.22
34566;BME280;20803;42.676;26.348;2023-08-17T10:23:57;98549.19;;;33.49;37.89
34566;BME280;20803;42.676;26.348;2023-08-17T10:26:23;98549.78;;;33.55;38.45
34566;BME280;20803;42.676;26.348;2023-08-17T10:28:50;98550.94;;;33.60;38.26
34566;BME280;20803;42.676;26.348;2023-08-17T10:31:16;98547.28;;;33.59;37.80
34566;BME280;20803;42.676;26.348;2023-08-17T10:33:43;98551.31;;;33.49;37.91
34566;BME280;20803;42.676;26.348;2023-08-17T10:36:12;98545.53;;;33.49;38.20
34566;BME280;20803;42.676;26.348;2023-08-17T10:38:38;98545.94;;;33.53;37.82
34566;BME280;20803;42.676;26.348;2023-08-17T10:41:14;98541.13;;;33.48;38.07
34566;BME280;20803;42.676;26.348;2023-08-17T10:43:59;98540.41;;;33.70;38.48
34566;BME280;20803;42.676;26.348;2023-08-17T10:46:35;98541.72;;;33.69;38.98
34566;BME280;20803;42.676;26.348;2023-08-17T10:49:05;98541.53;;;33.74;38.76
34566;BME280;20803;42.676;26.348;2023-08-17T10:51:31;98542.88;;;33.96;38.51
34566;BME280;20803;42.676;26.348;2023-08-17T10:54:03;98542.28;;;34.13;38.50
34566;BME280;20803;42.676;26.348;2023-08-17T10:56:29;98532.47;;;34.31;37.63
34566;BME280;20803;42.676;26.348;2023-08-17T10:59:24;98533.81;;;34.30;37.94
34566;BME280;20803;42.676;26.348;2023-08-17T11:01:51;98536.13;;;34.32;37.55
34566;BME280;20803;42.676;26.348;2023-08-17T11:04:17;98535.16;;;34.29;37.72
34566;BME280;20803;42.676;26.348;2023-08-17T11:06:45;98521.69;;;34.32;37.04
34566;BME280;20803;42.676;26.348;2023-08-17T11:09:11;98521.91;;;34.26;36.80
34566;BME280;20803;42.676;26.348;2023-08-17T11:11:37;98522.84;;;34.29;36.86
34566;BME280;20803;42.676;26.348;2023-08-17T11:14:03;98517.09;;;34.21;36.88
34566;BME280;20803;42.676;26.348;2023-08-17T11:16:28;98511.50;;;34.23;37.43
34566;BME280;20803;42.676;26.348;2023-08-17T11:18:53;98504.72;;;34.36;36.90
34566;BME280;20803;42.676;26.348;2023-08-17T11:21:22;98503.97;;;34.35;37.50
34566;BME280;20803;42.676;26.348;2023-08-17T11:23:47;98507.25;;;34.39;37.23
34566;BME280;20803;42.676;26.348;2023-08-17T11:26:17;98483.53;;;34.41;36.29
34566;BME280;20803;42.676;26.348;2023-08-17T11:28:42;98499.78;;;34.21;36.67
34566;BME280;20803;42.676;26.348;2023-08-17T11:31:11;98500.34;;;34.19;36.40
34566;BME280;20803;42.676;26.348;2023-08-17T11:33:37;98512.28;;;34.24;36.32
34566;BME280;20803;42.676;26.348;2023-08-17T11:36:05;98504.59;;;34.26;36.53
34566;BME280;20803;42.676;26.348;2023-08-17T11:38:36;98495.53;;;34.30;36.72
34566;BME280;20803;42.676;26.348;2023-08-17T11:41:03;98496.66;;;34.34;36.21
34566;BME280;20803;42.676;26.348;2023-08-17T11:43:29;98499.59;;;34.27;36.50
34566;BME280;20803;42.676;26.348;2023-08-17T11:45:55;98499.34;;;34.40;36.07
34566;BME280;20803;42.676;26.348;2023-08-17T11:48:21;98491.44;;;34.40;36.39
34566;BME280;20803;42.676;26.348;2023-08-17T11:50:48;98493.34;;;34.45;36.55
34566;BME280;20803;42.676;26.348;2023-08-17T11:53:14;98489.63;;;34.60;36.90
34566;BME280;20803;42.676;26.348;2023-08-17T11:55:40;98489.59;;;34.75;36.03
34566;BME280;20803;42.676;26.348;2023-08-17T11:58:05;98487.47;;;34.68;36.00
34566;BME280;20803;42.676;26.348;2023-08-17T12:00:36;98490.53;;;34.78;36.48
34566;BME280;20803;42.676;26.348;2023-08-17T12:03:02;98483.94;;;34.85;35.74
34566;BME280;20803;42.676;26.348;2023-08-17T12:05:31;98484.72;;;34.85;36.03
34566;BME280;20803;42.676;26.348;2023-08-17T12:07:58;98472.97;;;34.83;36.18
34566;BME280;20803;42.676;26.348;2023-08-17T12:10:24;98479.19;;;34.72;36.30
34566;BME280;20803;42.676;26.348;2023-08-17T12:12:49;98478.81;;;34.76;36.24
34566;BME280;20803;42.676;26.348;2023-08-17T12:15:18;98478.03;;;34.75;35.99
34566;BME280;20803;42.676;26.348;2023-08-17T12:17:48;98475.34;;;34.70;36.44
34566;BME280;20803;42.676;26.348;2023-08-17T12:20:18;98474.38;;;34.67;36.67
34566;BME280;20803;42.676;26.348;2023-08-17T12:22:44;98470.72;;;34.74;36.17
34566;BME280;20803;42.676;26.348;2023-08-17T12:25:10;98470.31;;;34.78;36.59
34566;BME280;20803;42.676;26.348;2023-08-17T12:27:35;98464.19;;;34.66;36.43
34566;BME280;20803;42.676;26.348;2023-08-17T12:30:01;98464.97;;;34.67;36.77
34566;BME280;20803;42.676;26.348;2023-08-17T12:32:27;98457.47;;;34.64;37.14
34566;BME280;20803;42.676;26.348;2023-08-17T12:34:52;98470.72;;;34.67;36.66
34566;BME280;20803;42.676;26.348;2023-08-17T12:37:20;98461.50;;;34.76;36.81
34566;BME280;20803;42.676;26.348;2023-08-17T12:39:48;98464.50;;;34.85;36.27
34566;BME280;20803;42.676;26.348;2023-08-17T12:42:14;98464.94;;;34.74;36.96
34566;BME280;20803;42.676;26.348;2023-08-17T12:44:42;98464.72;;;34.80;36.51
34566;BME280;20803;42.676;26.348;2023-08-17T12:47:08;98456.78;;;34.88;36.45
34566;BME280;20803;42.676;26.348;2023-08-17T12:49:33;98455.38;;;34.96;36.83
34566;BME280;20803;42.676;26.348;2023-08-17T12:51:59;98464.00;;;35.04;36.26